Time;durP1;ratioP1;P1;durP2;ratioP2;P2;SDS_P1;SDS_P2;PMS_P1;PMS_P2;Temp;Humidity;BMP_temperature;BMP_pressure;BME280_temperature;BME280_humidity;BME280_pressure;Samples;Min_cycle;Max_cycle;Signal;HPM_P1;HPM_P2
2021/05/28 00:02:03;;;;;;;7.37;4.60;;;;;;;14.28;91.54;97369.30;1628774;88;21508;-70
2021/05/28 00:04:30;;;;;;;6.62;4.83;;;;;;;14.26;91.93;97366.71;1637974;86;21115;-70
2021/05/28 00:06:56;;;;;;;5.70;4.40;;;;;;;14.23;92.11;97365.54;1643426;87;21051;-70
2021/05/28 00:09:23;;;;;;;6.92;4.40;;;;;;;14.23;92.06;97360.20;1639852;87;21039;-70
2021/05/28 00:11:50;;;;;;;7.08;4.55;;;;;;;14.27;91.92;97356.44;1640125;87;21077;-70
2021/05/28 00:14:18;;;;;;;7.55;4.33;;;;;;;14.28;92.00;97355.97;1640035;87;21140;-70
2021/05/28 00:16:45;;;;;;;6.87;4.30;;;;;;;14.31;92.09;97359.32;1644357;87;21603;-70
2021/05/28 00:19:12;;;;;;;5.85;4.72;;;;;;;14.35;92.40;97360.88;1670346;86;21022;-69
2021/05/28 00:21:38;;;;;;;7.15;3.90;;;;;;;14.41;92.71;97364.15;1670262;86;21113;-70
2021/05/28 00:24:07;;;;;;;7.08;4.30;;;;;;;14.45;93.03;97365.21;1670605;84;21041;-70
2021/05/28 00:26:33;;;;;;;6.72;4.28;;;;;;;14.52;92.98;97363.94;1686445;84;21527;-70
2021/05/28 00:29:00;;;;;;;6.17;3.55;;;;;;;14.60;92.84;97366.17;1693740;84;21089;-70
2021/05/28 00:31:26;;;;;;;5.78;4.10;;;;;;;14.67;92.76;97371.16;1699022;84;21065;-70
2021/05/28 00:33:53;;;;;;;4.67;3.72;;;;;;;14.70;92.65;97365.17;1675424;84;21038;-70
2021/05/28 00:36:20;;;;;;;5.60;3.70;;;;;;;14.70;92.63;97358.50;1663064;86;21042;-70
2021/05/28 00:38:46;;;;;;;5.62;3.67;;;;;;;14.73;93.63;97366.34;1663190;86;21085;-70
2021/05/28 00:41:14;;;;;;;6.03;3.47;;;;;;;14.73;93.22;97357.46;1663139;86;21110;-70
2021/05/28 00:43:42;;;;;;;5.03;3.87;;;;;;;14.77;93.47;97357.25;1663274;86;21086;-70
2021/05/28 00:46:09;;;;;;;9.20;3.80;;;;;;;14.74;93.64;97354.72;1663184;86;21058;-70
2021/05/28 00:48:36;;;;;;;5.05;3.67;;;;;;;14.75;92.90;97348.46;1663042;86;21137;-70
2021/05/28 00:51:04;;;;;;;7.35;3.83;;;;;;;14.75;92.85;97352.45;1685020;84;21040;-70
2021/05/28 00:53:31;;;;;;;6.47;4.05;;;;;;;14.71;93.14;97354.91;1698867;84;21105;-70
2021/05/28 00:56:00;;;;;;;5.70;4.25;;;;;;;14.72;92.74;97343.28;1698840;84;21033;-70
2021/05/28 00:58:27;;;;;;;4.05;3.33;;;;;;;14.72;92.67;97355.75;1693395;84;21507;-69
2021/05/28 01:00:53;;;;;;;10.05;4.03;;;;;;;14.69;92.73;97355.45;1663233;86;21003;-70
2021/05/28 01:03:20;;;;;;;6.50;4.08;;;;;;;14.66;92.25;97347.64;1663260;86;21057;-69
2021/05/28 01:05:47;;;;;;;5.97;4.00;;;;;;;14.65;92.55;97335.23;1663083;85;21161;-70
2021/05/28 01:08:13;;;;;;;7.85;4.00;;;;;;;14.63;92.04;97335.34;1663138;84;21055;-69
2021/05/28 01:10:40;;;;;;;7.87;4.35;;;;;;;14.61;91.81;97333.22;1663123;86;21027;-69
2021/05/28 01:13:09;;;;;;;7.47;4.03;;;;;;;14.59;91.98;97339.13;1663171;86;21062;-70
2021/05/28 01:15:36;;;;;;;14.30;3.92;;;;;;;14.57;92.48;97338.34;1683458;84;21175;-70
2021/05/28 01:18:04;;;;;;;6.17;3.90;;;;;;;14.52;92.25;97345.28;1684300;84;21025;-70
2021/05/28 01:20:31;;;;;;;6.00;3.90;;;;;;;14.48;93.36;97341.52;1698831;84;21069;-70
2021/05/28 01:23:01;;;;;;;7.10;4.03;;;;;;;14.43;91.95;97343.58;1682623;84;21026;-70
2021/05/28 01:25:29;;;;;;;7.42;4.00;;;;;;;14.41;91.80;97336.16;1663005;86;21082;-70
2021/05/28 01:27:56;;;;;;;7.75;3.83;;;;;;;14.36;92.19;97342.60;1663102;85;21038;-69
2021/05/28 01:30:25;;;;;;;5.45;3.83;;;;;;;14.27;92.33;97346.27;1663011;86;21504;-70
2021/05/28 01:32:53;;;;;;;4.95;4.00;;;;;;;14.21;92.59;97352.29;1663097;86;21035;-70
2021/05/28 01:35:22;;;;;;;6.25;3.75;;;;;;;14.19;93.05;97349.32;1663089;86;21038;-69
2021/05/28 01:37:49;;;;;;;4.33;3.75;;;;;;;14.15;93.03;97349.13;1662529;86;21259;-70
2021/05/28 01:40:18;;;;;;;4.40;4.00;;;;;;;14.11;93.09;97355.95;1672971;84;21073;-69
2021/05/28 01:42:45;;;;;;;6.58;3.90;;;;;;;14.09;92.98;97348.98;1696501;84;21025;-69
2021/05/28 01:45:13;;;;;;;5.90;4.20;;;;;;;14.07;93.01;97347.73;1698812;84;21033;-69
2021/05/28 01:47:40;;;;;;;7.83;3.65;;;;;;;14.05;92.63;97347.42;1676895;84;21064;-70
2021/05/28 01:50:10;;;;;;;6.92;4.00;;;;;;;14.07;93.65;97346.88;1667883;86;21067;-70
2021/05/28 01:52:37;;;;;;;7.25;4.00;;;;;;;14.07;94.07;97340.22;1647437;87;21070;-70
2021/05/28 01:55:11;;;;;;;4.90;3.90;;;;;;;14.06;94.44;97346.02;1647626;87;21058;-70
2021/05/28 01:57:38;;;;;;;6.08;3.77;;;;;;;14.07;94.19;97343.73;1647761;86;21054;-70
2021/05/28 02:00:10;;;;;;;5.22;3.90;;;;;;;14.13;93.41;97339.88;1647454;87;21067;-70
2021/05/28 02:02:37;;;;;;;5.95;4.20;;;;;;;14.17;93.69;97340.11;1647617;86;21103;-69
2021/05/28 02:05:06;;;;;;;4.85;3.52;;;;;;;14.22;93.61;97341.17;1671075;83;21062;-70
2021/05/28 02:07:33;;;;;;;6.75;4.08;;;;;;;14.26;93.33;97340.06;1716618;83;21046;-69
2021/05/28 02:10:00;;;;;;;5.10;3.75;;;;;;;14.29;93.48;97338.57;1698641;83;21070;-69
2021/05/28 02:12:26;;;;;;;4.47;3.40;;;;;;;14.36;93.37;97343.94;1692708;85;21055;-70
2021/05/28 02:14:57;;;;;;;4.85;3.92;;;;;;;14.39;93.43;97345.11;1659213;86;21068;-70
2021/05/28 02:17:22;;;;;;;4.95;3.85;;;;;;;14.45;93.56;97340.37;1625210;87;21177;-70
2021/05/28 02:19:49;;;;;;;5.65;3.58;;;;;;;14.49;93.50;97341.93;1640139;87;21073;-70
2021/05/28 02:22:16;;;;;;;7.10;3.55;;;;;;;14.52;93.30;97345.73;1640326;87;21148;-70
2021/05/28 02:24:42;;;;;;;5.83;3.45;;;;;;;14.54;93.56;97343.86;1640272;87;21534;-71
2021/05/28 02:27:09;;;;;;;3.33;3.02;;;;;;;14.58;93.50;97344.54;1640138;87;21064;-70
2021/05/28 02:29:36;;;;;;;5.78;3.30;;;;;;;14.54;93.46;97345.66;1646972;86;21090;-70
2021/05/28 02:32:03;;;;;;;5.72;3.30;;;;;;;14.52;93.57;97353.27;1649154;86;21036;-70
2021/05/28 02:34:29;;;;;;;5.15;3.27;;;;;;;14.48;93.22;97345.52;1659937;86;21046;-70
2021/05/28 02:36:56;;;;;;;6.58;3.75;;;;;;;14.45;93.10;97347.88;1651241;86;21060;-69
2021/05/28 02:39:22;;;;;;;6.40;3.47;;;;;;;14.40;92.66;97348.61;1640341;87;21558;-70
2021/05/28 02:41:48;;;;;;;6.33;3.40;;;;;;;14.35;92.62;97350.22;1640162;87;21009;-70
2021/05/28 02:44:15;;;;;;;4.78;3.60;;;;;;;14.34;92.83;97340.97;1640439;87;21073;-70
2021/05/28 02:46:42;;;;;;;5.62;3.72;;;;;;;14.27;92.98;97342.27;1640192;87;21511;-70
2021/05/28 02:49:09;;;;;;;7.67;3.80;;;;;;;14.19;93.12;97343.53;1640105;87;21053;-70
2021/05/28 02:51:36;;;;;;;6.62;4.00;;;;;;;14.17;92.91;97347.23;1640214;87;21100;-70
2021/05/28 02:54:02;;;;;;;8.18;4.10;;;;;;;14.16;92.56;97354.84;1640010;86;21102;-70
2021/05/28 02:56:29;;;;;;;8.08;4.05;;;;;;;14.10;92.82;97344.91;1661858;86;21471;-70
2021/05/28 02:58:55;;;;;;;5.50;3.65;;;;;;;14.08;93.18;97352.59;1654796;86;21062;-70
2021/05/28 03:01:22;;;;;;;7.60;4.25;;;;;;;14.04;93.02;97358.53;1668173;86;21091;-71
2021/05/28 03:03:58;;;;;;;8.35;3.83;;;;;;;13.99;93.38;97355.27;1665564;86;21042;-71
2021/05/28 03:06:30;;;;;;;7.53;4.37;;;;;;;13.98;93.62;97361.08;1634240;87;21117;-70
2021/05/28 03:08:58;;;;;;;6.12;4.10;;;;;;;13.99;92.89;97356.14;1634726;88;21104;-71
2021/05/28 03:11:24;;;;;;;7.28;4.65;;;;;;;14.01;92.66;97362.72;1634822;87;21053;-70
2021/05/28 03:13:51;;;;;;;7.15;4.60;;;;;;;14.02;93.66;97356.90;1634726;88;21053;-70
2021/05/28 03:16:18;;;;;;;5.53;4.40;;;;;;;14.00;93.39;97347.69;1634743;88;21530;-70
2021/05/28 03:18:51;;;;;;;7.40;4.95;;;;;;;14.02;93.07;97354.23;1634764;87;21053;-71
2021/05/28 03:24:01;;;;;;;8.30;5.17;;;;;;;14.04;92.97;97361.69;1655242;86;21024;-70
2021/05/28 03:26:30;;;;;;;7.35;5.08;;;;;;;14.03;93.01;97364.81;1635084;87;21083;-71
2021/05/28 03:28:59;;;;;;;8.48;5.28;;;;;;;14.03;93.16;97361.31;1634986;86;21089;-70
2021/05/28 03:31:26;;;;;;;7.97;4.55;;;;;;;14.03;92.81;97362.16;1634768;88;21590;-70
2021/05/28 03:33:53;;;;;;;4.83;4.15;;;;;;;14.04;93.82;97359.87;1634877;88;21053;-71
2021/05/28 03:36:20;;;;;;;10.03;5.05;;;;;;;14.05;94.91;97365.61;1634867;88;21061;-71
2021/05/28 03:38:47;;;;;;;5.62;4.05;;;;;;;14.08;93.82;97360.09;1634708;88;21601;-70
2021/05/28 03:41:15;;;;;;;5.00;4.50;;;;;;;14.08;94.14;97359.26;1634902;88;21502;-70
2021/05/28 03:43:42;;;;;;;5.17;4.28;;;;;;;14.11;93.73;97368.39;1634741;88;21542;-70
2021/05/28 03:46:09;;;;;;;5.55;3.77;;;;;;;14.12;93.57;97369.65;1663016;86;21054;-70
2021/05/28 03:48:35;;;;;;;6.15;4.03;;;;;;;14.16;93.81;97372.16;1655366;86;21742;-70
2021/05/28 03:51:02;;;;;;;6.03;4.10;;;;;;;14.21;94.13;97374.94;1634989;86;21063;-70
2021/05/28 03:53:28;;;;;;;4.75;3.80;;;;;;;14.21;95.15;97376.27;1634893;88;21069;-70
2021/05/28 03:55:55;;;;;;;8.63;6.03;;;;;;;14.26;93.91;97378.70;1634808;88;21622;-70
2021/05/28 03:58:21;;;;;;;8.83;4.72;;;;;;;14.29;94.25;97375.02;1634786;88;21033;-70
2021/05/28 04:00:48;;;;;;;8.05;4.50;;;;;;;14.32;94.13;97379.70;1638089;86;21035;-69
2021/05/28 04:03:15;;;;;;;7.90;4.35;;;;;;;14.36;94.06;97379.05;1635142;86;21047;-70
2021/05/28 04:05:41;;;;;;;6.00;3.85;;;;;;;14.39;93.96;97378.43;1635132;86;21130;-71
2021/05/28 04:08:07;;;;;;;5.17;3.85;;;;;;;14.32;94.64;97377.52;1636758;87;21042;-74
2021/05/28 04:10:34;;;;;;;9.60;4.10;;;;;;;14.35;94.16;97375.54;1625154;87;21554;-72
2021/05/28 04:13:00;;;;;;;9.83;4.10;;;;;;;14.33;94.03;97381.91;1637373;86;21058;-72
2021/05/28 04:15:27;;;;;;;5.37;3.85;;;;;;;14.32;94.22;97382.36;1635266;88;21199;-72
2021/05/28 04:17:53;;;;;;;5.45;3.87;;;;;;;14.35;93.87;97385.33;1646483;87;21048;-72
2021/05/28 04:20:20;;;;;;;9.15;4.62;;;;;;;14.33;94.85;97385.90;1640028;87;21065;-72
2021/05/28 04:22:47;;;;;;;5.87;4.20;;;;;;;14.29;93.66;97389.67;1644473;87;21058;-72
2021/05/28 04:25:14;;;;;;;5.55;4.08;;;;;;;14.28;93.67;97383.95;1670272;86;21459;-72
2021/05/28 04:27:40;;;;;;;7.08;3.70;;;;;;;14.26;93.42;97384.03;1670288;86;21479;-71
2021/05/28 04:30:08;;;;;;;5.78;3.77;;;;;;;14.13;93.40;97386.02;1670448;86;21550;-72
2021/05/28 04:32:35;;;;;;;7.20;4.00;;;;;;;14.06;93.65;97387.31;1649269;86;21040;-72
2021/05/28 04:35:01;;;;;;;7.33;4.72;;;;;;;13.94;94.23;97389.28;1654669;84;21081;-73
2021/05/28 04:37:28;;;;;;;5.90;4.53;;;;;;;13.88;94.13;97386.48;1685217;83;21074;-73
2021/05/28 04:39:55;;;;;;;7.40;4.17;;;;;;;13.80;94.45;97390.89;1679448;84;21051;-73
2021/05/28 04:42:21;;;;;;;5.67;4.30;;;;;;;13.73;94.12;97386.36;1662060;86;21087;-73
2021/05/28 04:44:47;;;;;;;5.40;4.40;;;;;;;13.68;94.60;97386.20;1657745;86;21083;-72
2021/05/28 04:47:14;;;;;;;5.85;4.65;;;;;;;13.63;93.96;97386.45;1661127;86;21034;-76
2021/05/28 04:49:40;;;;;;;6.90;4.50;;;;;;;13.64;93.81;97383.30;1663338;85;21058;-72
2021/05/28 04:52:07;;;;;;;4.67;3.87;;;;;;;13.61;95.55;97392.30;1657784;85;21054;-75
2021/05/28 04:54:34;;;;;;;6.35;4.58;;;;;;;13.54;95.15;97387.77;1669827;84;22376;-73
2021/05/28 04:57:00;;;;;;;6.45;4.53;;;;;;;13.48;95.38;97400.52;1673911;86;21434;-73
2021/05/28 04:59:27;;;;;;;6.15;5.00;;;;;;;13.40;96.86;97404.88;1674415;84;21086;-72
2021/05/28 05:01:53;;;;;;;5.62;4.85;;;;;;;13.34;97.05;97404.25;1694343;83;21037;-72
2021/05/28 05:04:20;;;;;;;5.65;4.47;;;;;;;13.32;97.56;97411.46;1692916;84;21074;-73
2021/05/28 05:06:46;;;;;;;4.72;3.25;;;;;;;13.30;96.30;97408.03;1687478;84;21137;-72
2021/05/28 05:09:13;;;;;;;4.87;3.52;;;;;;;13.31;96.55;97408.41;1690176;85;21595;-72
2021/05/28 05:11:39;;;;;;;6.55;4.00;;;;;;;13.30;97.63;97414.68;1647686;87;21052;-72
2021/05/28 05:14:06;;;;;;;4.28;3.70;;;;;;;13.35;96.60;97409.11;1690243;84;21555;-72
2021/05/28 05:16:34;;;;;;;6.45;3.30;;;;;;;13.39;97.55;97412.47;1711776;84;21035;-73
2021/05/28 05:19:00;;;;;;;6.22;3.15;;;;;;;13.40;97.27;97415.52;1712254;84;21097;-72
2021/05/28 05:21:27;;;;;;;3.98;2.90;;;;;;;13.44;96.54;97418.42;1712270;84;21504;-72
2021/05/28 05:23:54;;;;;;;3.70;2.90;;;;;;;13.44;96.06;97423.75;1666155;86;21025;-72
2021/05/28 05:26:21;;;;;;;4.00;3.00;;;;;;;13.47;95.97;97419.64;1679597;84;21026;-72
2021/05/28 05:28:47;;;;;;;5.25;3.08;;;;;;;13.49;95.86;97414.25;1632210;86;21064;-71
2021/05/28 05:31:14;;;;;;;3.62;2.30;;;;;;;13.54;96.02;97416.20;1646736;86;21033;-71
2021/05/28 05:33:40;;;;;;;4.30;2.65;;;;;;;13.55;95.79;97416.59;1630805;88;22152;-71
2021/05/28 05:36:07;;;;;;;5.75;3.47;;;;;;;13.56;95.54;97410.31;1626458;87;21051;-72
2021/05/28 05:38:33;;;;;;;4.95;3.02;;;;;;;13.59;95.66;97408.84;1611084;89;21054;-72
2021/05/28 05:41:00;;;;;;;4.60;3.35;;;;;;;13.62;97.44;97409.99;1611128;89;21059;-72
2021/05/28 05:43:26;;;;;;;5.00;3.40;;;;;;;13.59;96.41;97416.34;1611045;89;21543;-72
2021/05/28 05:45:53;;;;;;;6.75;3.20;;;;;;;13.62;96.39;97410.48;1611014;89;21196;-72
2021/05/28 05:48:19;;;;;;;4.05;3.00;;;;;;;13.67;95.58;97407.95;1611060;89;21031;-72
2021/05/28 05:50:46;;;;;;;8.55;2.75;;;;;;;13.70;95.50;97413.62;1641366;86;21090;-72
2021/05/28 05:53:13;;;;;;;4.83;2.80;;;;;;;13.69;95.38;97406.09;1665752;86;21023;-72
2021/05/28 05:55:39;;;;;;;6.78;3.47;;;;;;;13.70;95.19;97408.30;1640133;87;21500;-72
2021/05/28 05:58:06;;;;;;;3.62;3.15;;;;;;;13.66;95.05;97416.05;1640674;87;21080;-73
2021/05/28 06:00:32;;;;;;;4.53;3.10;;;;;;;13.64;96.09;97409.92;1640931;87;21045;-72
2021/05/28 06:02:59;;;;;;;5.58;3.83;;;;;;;13.63;94.85;97410.41;1640812;87;21041;-72
2021/05/28 06:05:26;;;;;;;5.75;3.37;;;;;;;13.67;94.97;97405.78;1640833;87;21590;-72
2021/05/28 06:07:54;;;;;;;4.30;3.00;;;;;;;13.71;95.53;97409.52;1641834;87;21041;-73
2021/05/28 06:10:21;;;;;;;6.37;3.20;;;;;;;13.72;95.48;97410.40;1641819;87;21116;-72
2021/05/28 06:12:47;;;;;;;4.40;2.85;;;;;;;13.75;94.97;97412.04;1641825;87;21125;-72
2021/05/28 06:15:14;;;;;;;3.83;3.10;;;;;;;13.75;94.55;97406.71;1644141;86;21015;-73
2021/05/28 06:17:41;;;;;;;5.15;3.25;;;;;;;13.69;95.37;97404.77;1664571;86;21114;-72
2021/05/28 06:20:08;;;;;;;5.17;3.30;;;;;;;13.72;94.98;97399.75;1669276;86;21027;-72
2021/05/28 06:22:34;;;;;;;7.42;3.20;;;;;;;13.74;96.54;97413.83;1635219;86;21047;-72
2021/05/28 06:25:00;;;;;;;5.60;3.30;;;;;;;13.77;95.18;97415.01;1635097;88;21078;-73
2021/05/28 06:27:27;;;;;;;6.70;3.25;;;;;;;13.79;95.66;97410.94;1634730;88;21117;-72
2021/05/28 06:29:53;;;;;;;4.55;3.83;;;;;;;13.80;96.70;97408.20;1634897;88;21077;-73
2021/05/28 06:32:20;;;;;;;6.47;3.33;;;;;;;13.83;95.19;97412.52;1630163;86;21138;-73
2021/05/28 06:34:46;;;;;;;3.92;3.52;;;;;;;13.82;96.71;97403.64;1633991;87;21019;-72
2021/05/28 06:37:13;;;;;;;4.33;3.83;;;;;;;13.85;96.25;97407.49;1656795;86;21512;-72
2021/05/28 06:39:40;;;;;;;6.12;3.70;;;;;;;13.92;95.21;97414.70;1669272;86;21023;-72
2021/05/28 06:42:06;;;;;;;7.50;3.67;;;;;;;13.96;96.76;97404.73;1636218;86;21645;-72
2021/05/28 06:44:33;;;;;;;6.80;3.83;;;;;;;14.04;96.83;97405.66;1623527;88;21050;-71
2021/05/28 06:46:59;;;;;;;6.00;3.50;;;;;;;14.07;96.34;97413.49;1621040;88;21071;-72
2021/05/28 06:49:27;;;;;;;6.00;3.25;;;;;;;14.12;96.61;97408.78;1626285;87;21078;-72
2021/05/28 06:51:54;;;;;;;6.08;3.27;;;;;;;14.16;95.92;97408.97;1633847;87;21518;-72
2021/05/28 06:54:21;;;;;;;6.22;3.85;;;;;;;14.23;95.85;97408.17;1623312;87;21086;-72
2021/05/28 06:56:47;;;;;;;3.83;3.42;;;;;;;14.29;97.15;97407.88;1654091;86;21089;-72
2021/05/28 06:59:14;;;;;;;4.72;3.62;;;;;;;14.34;96.02;97396.95;1627215;87;21031;-72
2021/05/28 07:01:40;;;;;;;4.80;3.27;;;;;;;14.45;96.15;97397.70;1647567;86;21633;-72
2021/05/28 07:04:07;;;;;;;5.15;3.40;;;;;;;14.54;95.72;97396.31;1646096;86;21017;-72
2021/05/28 07:06:34;;;;;;;5.05;4.12;;;;;;;14.61;95.77;97388.34;1623874;86;21114;-72
2021/05/28 07:09:01;;;;;;;3.27;2.98;;;;;;;14.72;94.96;97393.09;1620681;88;21104;-72
2021/05/28 07:11:27;;;;;;;2.60;2.40;;;;;;;14.72;94.87;97389.09;1610576;88;21508;-76
2021/05/28 07:13:54;;;;;;;4.47;2.70;;;;;;;14.77;94.74;97385.26;1610430;88;21027;-73
2021/05/28 07:16:20;;;;;;;4.33;3.20;;;;;;;14.84;94.85;97387.11;1610270;88;21050;-76
2021/05/28 07:18:48;;;;;;;3.25;2.80;;;;;;;14.97;95.24;97388.59;1599894;88;21501;-72
2021/05/28 07:21:15;;;;;;;3.80;3.00;;;;;;;15.12;94.56;97385.99;1609378;88;21596;-75
2021/05/28 07:23:41;;;;;;;2.87;2.30;;;;;;;15.14;93.74;97384.95;1613110;88;21076;-75
2021/05/28 07:26:07;;;;;;;3.00;2.70;;;;;;;15.12;91.08;97384.66;1609997;88;21099;-76
2021/05/28 07:28:34;;;;;;;3.90;2.75;;;;;;;15.09;92.76;97389.70;1615783;88;21046;-75
2021/05/28 07:31:01;;;;;;;4.62;3.50;;;;;;;15.12;92.09;97385.99;1624698;87;21091;-76
2021/05/28 07:33:27;;;;;;;3.27;2.87;;;;;;;15.12;92.57;97385.50;1618777;89;21083;-73
2021/05/28 07:35:54;;;;;;;4.05;3.02;;;;;;;15.14;92.91;97379.62;1606312;89;21135;-75
2021/05/28 07:38:20;;;;;;;3.77;3.10;;;;;;;15.19;92.48;97384.67;1615603;89;21069;-75
2021/05/28 07:40:47;;;;;;;3.77;3.10;;;;;;;15.28;92.78;97388.64;1638077;86;21050;-73
2021/05/28 07:43:14;;;;;;;6.67;3.33;;;;;;;15.39;92.56;97387.98;1607698;89;21515;-74
2021/05/28 07:45:40;;;;;;;7.28;3.58;;;;;;;15.51;93.29;97393.08;1618790;87;21071;-77
2021/05/28 07:48:08;;;;;;;6.45;3.70;;;;;;;15.60;93.16;97384.52;1618851;89;21091;-78
2021/05/28 07:50:47;;;;;;;5.53;3.33;;;;;;;15.70;92.94;97391.52;1606649;89;21494;-80
2021/05/28 07:53:18;;;;;;;4.92;3.00;;;;;;;15.78;93.01;97391.05;1615453;89;21511;-77
2021/05/28 07:55:45;;;;;;;3.92;3.47;;;;;;;15.80;92.45;97395.81;1612480;88;21530;-75
2021/05/28 07:58:12;;;;;;;3.83;3.22;;;;;;;15.82;92.62;97392.59;1619537;88;21512;-76
2021/05/28 08:00:39;;;;;;;5.25;3.33;;;;;;;15.83;92.63;97398.30;1607179;88;21073;-77
2021/05/28 08:03:06;;;;;;;5.42;3.40;;;;;;;15.84;92.21;97391.54;1615124;89;21744;-75
2021/05/28 08:05:33;;;;;;;5.30;3.55;;;;;;;15.86;92.68;97395.92;1632968;87;21070;-75
2021/05/28 08:08:00;;;;;;;4.87;3.40;;;;;;;15.87;92.15;97400.30;1628244;87;21105;-75
2021/05/28 08:10:29;;;;;;;4.12;3.05;;;;;;;15.88;92.35;97396.21;1633610;86;21102;-74
2021/05/28 08:12:56;;;;;;;6.08;3.30;;;;;;;15.83;92.05;97399.64;1641657;87;21086;-76
2021/05/28 08:15:24;;;;;;;5.25;3.40;;;;;;;15.87;92.39;97401.64;1641410;87;21058;-76
2021/05/28 08:17:50;;;;;;;4.50;3.20;;;;;;;15.89;91.75;97394.37;1641734;86;21085;-76
2021/05/28 08:20:17;;;;;;;5.15;3.50;;;;;;;15.77;90.92;97394.64;1656325;86;21578;-75
2021/05/28 08:22:45;;;;;;;4.67;3.27;;;;;;;15.81;92.13;97394.84;1656887;86;21034;-75
2021/05/28 08:25:13;;;;;;;4.75;3.12;;;;;;;15.90;91.79;97399.64;1648189;86;21109;-75
2021/05/28 08:27:40;;;;;;;6.28;3.10;;;;;;;15.84;91.15;97406.23;1643047;86;21093;-75
2021/05/28 08:30:07;;;;;;;4.28;3.40;;;;;;;15.95;91.70;97409.59;1644015;85;21075;-75
2021/05/28 08:32:34;;;;;;;6.53;3.47;;;;;;;16.07;91.63;97397.80;1641255;87;21054;-75
2021/05/28 08:35:02;;;;;;;5.87;3.80;;;;;;;16.18;91.81;97407.80;1641831;87;21102;-75
2021/05/28 08:37:29;;;;;;;4.97;3.30;;;;;;;16.35;91.92;97404.07;1660749;86;21288;-75
2021/05/28 08:39:55;;;;;;;3.70;3.08;;;;;;;16.52;91.94;97407.02;1652104;86;21079;-75
2021/05/28 08:42:22;;;;;;;4.97;3.35;;;;;;;16.66;90.77;97403.95;1638547;86;21029;-75
2021/05/28 08:44:52;;;;;;;3.35;2.87;;;;;;;16.66;90.52;97416.86;1642468;86;21058;-75
2021/05/28 08:47:20;;;;;;;5.72;3.33;;;;;;;16.69;86.79;97415.80;1656865;86;21039;-75
2021/05/28 08:49:48;;;;;;;3.70;2.70;;;;;;;16.73;88.51;97415.50;1636711;85;21055;-75
2021/05/28 08:52:16;;;;;;;5.87;3.12;;;;;;;16.87;89.26;97421.28;1612321;87;21020;-76
2021/05/28 08:54:43;;;;;;;4.55;3.22;;;;;;;17.02;89.58;97416.77;1651276;86;21094;-76
2021/05/28 08:57:13;;;;;;;4.72;3.25;;;;;;;17.15;89.45;97422.70;1634244;86;21486;-76
2021/05/28 08:59:39;;;;;;;6.12;3.90;;;;;;;17.20;89.20;97415.69;1637573;86;21055;-76
2021/05/28 09:02:30;;;;;;;6.80;5.90;;;;;;;17.27;89.14;97416.52;1641380;87;21086;-74
2021/05/28 09:05:13;;;;;;;6.47;4.20;;;;;;;17.26;87.46;97419.30;1646481;86;21027;-75
2021/05/28 09:07:53;;;;;;;5.50;3.17;;;;;;;17.28;87.43;97418.73;1638594;86;21053;-74
2021/05/28 09:10:33;;;;;;;3.77;3.10;;;;;;;17.36;88.21;97422.23;1646109;86;21039;-76
2021/05/28 09:13:19;;;;;;;3.67;3.27;;;;;;;17.47;87.65;97419.69;1625614;86;21019;-75
2021/05/28 09:16:04;;;;;;;5.80;3.20;;;;;;;17.54;87.54;97431.72;1652017;85;21050;-72
2021/05/28 09:18:53;;;;;;;3.22;2.60;;;;;;;17.62;86.75;97421.83;1646432;86;21060;-80
2021/05/28 09:21:32;;;;;;;4.35;2.70;;;;;;;17.63;82.28;97426.22;1612267;86;21041;-77
2021/05/28 09:24:02;;;;;;;3.08;2.45;;;;;;;17.49;80.98;97427.63;1643981;87;21030;-79
2021/05/28 09:26:31;;;;;;;4.03;2.92;;;;;;;17.51;83.25;97429.23;1642309;87;21133;-79
2021/05/28 09:29:01;;;;;;;4.40;3.27;;;;;;;17.61;83.94;97437.50;1627773;86;21551;-78
2021/05/28 09:31:34;;;;;;;3.55;3.02;;;;;;;17.58;83.36;97432.37;1629639;87;21059;-78
2021/05/28 09:34:01;;;;;;;3.87;3.37;;;;;;;17.66;84.71;97430.51;1638310;87;21070;-77
2021/05/28 09:36:36;;;;;;;4.47;2.98;;;;;;;17.70;84.74;97432.48;1634458;88;21073;-78
2021/05/28 09:39:11;;;;;;;;;;;;;;;17.84;85.32;97426.17;1637645;87;21067;-78
2021/05/28 09:41:47;;;;;;;3.50;2.95;;;;;;;17.97;80.77;97429.73;1643723;87;20197;-79
2021/05/28 09:44:21;;;;;;;3.42;3.00;;;;;;;18.03;84.25;97430.64;1651693;86;20987;-77
2021/05/28 09:47:17;;;;;;;3.98;2.62;;;;;;;18.06;82.85;97429.61;1656553;86;21063;-79
2021/05/28 09:49:50;;;;;;;2.90;2.47;;;;;;;18.10;83.18;97431.61;1634100;86;21103;-79
2021/05/28 09:52:21;;;;;;;4.40;3.58;;;;;;;17.88;77.37;97427.69;1619300;87;21070;-76
2021/05/28 09:55:07;;;;;;;3.72;2.70;;;;;;;17.79;81.16;97442.12;1615156;87;21666;-77
2021/05/28 09:57:47;;;;;;;5.20;2.80;;;;;;;17.88;81.62;97443.77;1647591;86;21063;-78
2021/05/28 10:00:28;;;;;;;3.98;2.70;;;;;;;17.79;77.56;97438.09;1623446;87;21067;-78
2021/05/28 10:03:19;;;;;;;3.35;2.70;;;;;;;17.81;81.06;97440.64;1659212;86;21755;-78
2021/05/28 10:05:51;;;;;;;2.35;2.10;;;;;;;17.85;81.83;97438.14;1611707;87;21052;-76
2021/05/28 10:08:22;;;;;;;5.78;2.60;;;;;;;17.88;80.43;97450.00;1620589;87;21099;-80
2021/05/28 10:10:52;;;;;;;3.75;2.40;;;;;;;17.94;78.97;97432.15;1620254;88;21099;-79
2021/05/28 10:13:25;;;;;;;5.47;2.30;;;;;;;17.95;79.28;97439.72;1615564;87;21135;-77
2021/05/28 10:15:55;;;;;;;3.87;2.30;;;;;;;18.04;79.45;97440.90;1641378;86;21078;-77
2021/05/28 10:18:23;;;;;;;3.67;2.40;;;;;;;18.10;78.48;97441.00;1625861;88;21548;-77
2021/05/28 10:20:53;;;;;;;4.37;2.30;;;;;;;18.17;78.21;97442.27;1639081;87;21030;-78
2021/05/28 10:23:23;;;;;;;3.70;2.20;;;;;;;18.14;76.81;97433.95;1643256;86;21022;-78
2021/05/28 10:25:54;;;;;;;3.30;2.08;;;;;;;18.22;77.39;97433.92;1653997;86;21063;-77
2021/05/28 10:28:25;;;;;;;5.62;2.70;;;;;;;18.26;78.49;97423.36;1637483;86;21107;-77
2021/05/28 10:30:55;;;;;;;3.02;2.10;;;;;;;18.37;78.87;97433.31;1630773;87;21072;-77
2021/05/28 10:33:31;;;;;;;2.70;2.27;;;;;;;18.45;72.33;97433.16;1643946;86;21089;-77
2021/05/28 10:36:05;;;;;;;4.47;2.20;;;;;;;18.37;72.82;97432.84;1654885;86;21064;-76
2021/05/28 10:38:38;;;;;;;;;;;;;;;18.31;70.87;97423.39;1646248;86;21034;-76
2021/05/28 10:41:16;;;;;;;2.30;2.10;;;;;;;18.37;75.04;97423.92;1647233;87;20162;-77
2021/05/28 10:43:54;;;;;;;3.25;2.20;;;;;;;18.46;75.17;97424.14;1650971;87;21089;-75
2021/05/28 10:46:20;;;;;;;2.90;2.10;;;;;;;18.58;74.78;97425.09;1650518;86;21065;-76
2021/05/28 10:48:53;;;;;;;2.30;2.10;;;;;;;18.65;70.83;97416.12;1639503;86;21013;-77
2021/05/28 10:51:30;;;;;;;3.98;2.37;;;;;;;18.82;73.99;97414.03;1644832;85;21043;-76
2021/05/28 10:54:02;;;;;;;5.62;2.25;;;;;;;19.03;72.99;97412.07;1618822;87;21100;-77
2021/05/28 10:56:40;;;;;;;5.90;2.67;;;;;;;19.34;73.54;97406.66;1644513;87;21050;-78
2021/05/28 10:59:21;;;;;;;5.05;3.05;;;;;;;19.62;73.52;97405.05;1638048;87;21079;-74
2021/05/28 11:01:52;;;;;;;5.87;3.50;;;;;;;19.88;72.15;97395.45;1646875;86;21050;-78
2021/05/28 11:04:31;;;;;;;4.55;2.62;;;;;;;20.04;68.79;97395.15;1647954;87;21049;-75
2021/05/28 11:07:03;;;;;;;3.00;2.10;;;;;;;20.39;70.57;97397.39;1642634;87;21081;-77
2021/05/28 11:09:50;;;;;;;4.37;2.15;;;;;;;20.65;67.29;97394.44;1616869;87;21551;-76
2021/05/28 11:12:28;;;;;;;4.92;2.17;;;;;;;20.94;68.61;97396.15;1601122;88;21023;-75
2021/05/28 11:15:10;;;;;;;1.98;1.62;;;;;;;21.25;68.92;97390.55;1633293;87;21087;-77
2021/05/28 11:17:59;;;;;;;6.25;1.80;;;;;;;21.65;67.93;97384.97;1594804;90;21546;-75
2021/05/28 11:20:42;;;;;;;2.12;1.77;;;;;;;22.14;65.21;97379.92;1628828;88;21075;-82
2021/05/28 11:23:16;;;;;;;2.33;1.67;;;;;;;22.38;59.24;97380.95;1608223;88;21047;-78
2021/05/28 11:25:51;;;;;;;2.40;1.90;;;;;;;22.59;54.88;97377.88;1627496;87;21186;-76
2021/05/28 11:28:19;;;;;;;1.72;1.50;;;;;;;22.85;56.08;97378.23;1624227;88;21044;-75
2021/05/28 11:30:52;;;;;;;17.05;14.73;;;;;;;22.98;55.09;97373.05;1628355;88;21091;-77
2021/05/28 11:33:43;;;;;;;2.65;1.98;;;;;;;23.27;56.16;97378.52;1638170;87;21500;-78
2021/05/28 11:36:29;;;;;;;2.50;1.70;;;;;;;23.41;56.23;97369.14;1600813;88;21563;-77
2021/05/28 11:39:00;;;;;;;4.10;1.72;;;;;;;23.77;55.45;97369.91;1636100;87;21074;-76
2021/05/28 11:41:48;;;;;;;1.95;1.70;;;;;;;23.68;50.13;97369.42;1632781;86;21055;-72
2021/05/28 11:44:19;;;;;;;2.02;1.50;;;;;;;23.55;53.32;97363.80;1633423;87;21089;-79
2021/05/28 11:46:51;;;;;;;3.10;1.75;;;;;;;23.50;55.60;97363.37;1640188;86;21089;-78